sensor_id;sensor_type;location;lat;lon;timestamp;P1;durP1;ratioP1;P2;durP2;ratioP2
11076;SDS011;5591;42.626;23.380;2022-09-17T00:01:24;10.37;;;5.43;;
11076;SDS011;5591;42.626;23.380;2022-09-17T00:03:53;9.90;;;5.17;;
11076;SDS011;5591;42.626;23.380;2022-09-17T00:06:21;6.47;;;4.97;;
11076;SDS011;5591;42.626;23.380;2022-09-17T00:08:50;10.13;;;6.03;;
11076;SDS011;5591;42.626;23.380;2022-09-17T00:11:18;14.63;;;6.87;;
11076;SDS011;5591;42.626;23.380;2022-09-17T00:13:47;12.27;;;6.20;;
11076;SDS011;5591;42.626;23.380;2022-09-17T00:16:20;9.37;;;5.37;;
11076;SDS011;5591;42.626;23.380;2022-09-17T00:18:49;10.07;;;5.60;;
11076;SDS011;5591;42.626;23.380;2022-09-17T00:21:16;9.97;;;5.10;;
11076;SDS011;5591;42.626;23.380;2022-09-17T00:23:43;8.53;;;4.50;;
11076;SDS011;5591;42.626;23.380;2022-09-17T00:26:12;7.73;;;4.67;;
11076;SDS011;5591;42.626;23.380;2022-09-17T00:28:39;7.27;;;4.30;;
11076;SDS011;5591;42.626;23.380;2022-09-17T00:31:09;8.23;;;4.20;;
11076;SDS011;5591;42.626;23.380;2022-09-17T00:33:36;6.63;;;4.30;;
11076;SDS011;5591;42.626;23.380;2022-09-17T00:36:03;7.20;;;4.60;;
11076;SDS011;5591;42.626;23.380;2022-09-17T00:38:30;8.40;;;4.40;;
11076;SDS011;5591;42.626;23.380;2022-09-17T00:40:57;6.00;;;3.50;;
11076;SDS011;5591;42.626;23.380;2022-09-17T00:43:39;6.40;;;3.63;;
11076;SDS011;5591;42.626;23.380;2022-09-17T00:46:14;6.27;;;3.97;;
11076;SDS011;5591;42.626;23.380;2022-09-17T00:48:49;5.63;;;3.80;;
11076;SDS011;5591;42.626;23.380;2022-09-17T00:51:19;8.63;;;3.80;;
11076;SDS011;5591;42.626;23.380;2022-09-17T00:53:48;10.63;;;4.43;;
11076;SDS011;5591;42.626;23.380;2022-09-17T00:56:17;6.67;;;4.30;;
11076;SDS011;5591;42.626;23.380;2022-09-17T00:58:49;8.57;;;4.47;;
11076;SDS011;5591;42.626;23.380;2022-09-17T01:01:17;8.07;;;4.70;;
11076;SDS011;5591;42.626;23.380;2022-09-17T01:03:44;5.60;;;4.10;;
11076;SDS011;5591;42.626;23.380;2022-09-17T01:06:13;7.33;;;4.27;;
11076;SDS011;5591;42.626;23.380;2022-09-17T01:11:50;9.37;;;4.93;;
11076;SDS011;5591;42.626;23.380;2022-09-17T01:14:36;8.93;;;4.53;;
11076;SDS011;5591;42.626;23.380;2022-09-17T01:17:14;5.77;;;4.60;;
11076;SDS011;5591;42.626;23.380;2022-09-17T01:19:59;7.27;;;4.50;;
11076;SDS011;5591;42.626;23.380;2022-09-17T01:22:55;10.10;;;5.10;;
11076;SDS011;5591;42.626;23.380;2022-09-17T01:25:35;11.30;;;5.63;;
11076;SDS011;5591;42.626;23.380;2022-09-17T01:28:21;7.60;;;5.50;;
11076;SDS011;5591;42.626;23.380;2022-09-17T01:31:18;9.47;;;4.43;;
11076;SDS011;5591;42.626;23.380;2022-09-17T01:33:57;7.73;;;4.33;;
11076;SDS011;5591;42.626;23.380;2022-09-17T01:36:49;10.80;;;4.47;;
11076;SDS011;5591;42.626;23.380;2022-09-17T01:39:30;7.13;;;3.90;;
11076;SDS011;5591;42.626;23.380;2022-09-17T01:42:11;7.43;;;4.23;;
11076;SDS011;5591;42.626;23.380;2022-09-17T01:44:44;6.37;;;3.93;;
11076;SDS011;5591;42.626;23.380;2022-09-17T01:47:19;9.97;;;3.93;;
11076;SDS011;5591;42.626;23.380;2022-09-17T01:49:49;7.27;;;3.73;;
11076;SDS011;5591;42.626;23.380;2022-09-17T01:52:20;5.97;;;3.90;;
11076;SDS011;5591;42.626;23.380;2022-09-17T01:54:50;6.90;;;4.00;;
11076;SDS011;5591;42.626;23.380;2022-09-17T01:57:22;6.17;;;4.17;;
11076;SDS011;5591;42.626;23.380;2022-09-17T01:59:54;8.43;;;4.30;;
11076;SDS011;5591;42.626;23.380;2022-09-17T02:02:28;6.10;;;4.47;;
11076;SDS011;5591;42.626;23.380;2022-09-17T02:04:59;11.20;;;5.13;;
11076;SDS011;5591;42.626;23.380;2022-09-17T02:07:30;6.10;;;4.17;;
11076;SDS011;5591;42.626;23.380;2022-09-17T02:10:04;7.43;;;5.00;;
11076;SDS011;5591;42.626;23.380;2022-09-17T02:12:36;12.33;;;5.87;;
11076;SDS011;5591;42.626;23.380;2022-09-17T02:15:08;9.57;;;5.90;;
11076;SDS011;5591;42.626;23.380;2022-09-17T02:17:41;10.70;;;6.40;;
11076;SDS011;5591;42.626;23.380;2022-09-17T02:20:11;15.23;;;6.57;;
11076;SDS011;5591;42.626;23.380;2022-09-17T02:22:40;14.77;;;6.83;;
11076;SDS011;5591;42.626;23.380;2022-09-17T02:25:11;12.37;;;8.50;;
11076;SDS011;5591;42.626;23.380;2022-09-17T02:27:46;17.00;;;8.30;;
11076;SDS011;5591;42.626;23.380;2022-09-17T02:30:18;8.93;;;7.20;;
11076;SDS011;5591;42.626;23.380;2022-09-17T02:32:46;10.17;;;7.07;;
11076;SDS011;5591;42.626;23.380;2022-09-17T02:35:14;11.27;;;7.50;;
11076;SDS011;5591;42.626;23.380;2022-09-17T02:37:41;10.47;;;6.73;;
11076;SDS011;5591;42.626;23.380;2022-09-17T02:40:08;12.17;;;6.63;;
11076;SDS011;5591;42.626;23.380;2022-09-17T02:42:42;8.63;;;6.57;;
11076;SDS011;5591;42.626;23.380;2022-09-17T02:45:26;12.67;;;6.60;;
11076;SDS011;5591;42.626;23.380;2022-09-17T02:48:12;9.83;;;6.27;;
11076;SDS011;5591;42.626;23.380;2022-09-17T02:50:55;11.27;;;7.00;;
11076;SDS011;5591;42.626;23.380;2022-09-17T02:53:34;9.97;;;6.57;;
11076;SDS011;5591;42.626;23.380;2022-09-17T02:56:08;9.07;;;5.53;;
11076;SDS011;5591;42.626;23.380;2022-09-17T02:58:45;7.30;;;5.40;;
11076;SDS011;5591;42.626;23.380;2022-09-17T03:14:15;7.70;;;4.63;;
11076;SDS011;5591;42.626;23.380;2022-09-17T03:16:44;8.30;;;4.77;;
11076;SDS011;5591;42.626;23.380;2022-09-17T03:19:11;10.40;;;6.00;;
11076;SDS011;5591;42.626;23.380;2022-09-17T03:21:38;9.17;;;4.77;;
11076;SDS011;5591;42.626;23.380;2022-09-17T03:24:05;7.20;;;4.63;;
11076;SDS011;5591;42.626;23.380;2022-09-17T03:26:32;7.93;;;4.60;;
11076;SDS011;5591;42.626;23.380;2022-09-17T03:28:59;8.97;;;4.80;;
11076;SDS011;5591;42.626;23.380;2022-09-17T03:31:27;7.70;;;4.20;;
11076;SDS011;5591;42.626;23.380;2022-09-17T03:33:54;7.97;;;4.00;;
11076;SDS011;5591;42.626;23.380;2022-09-17T03:36:21;6.87;;;3.93;;
11076;SDS011;5591;42.626;23.380;2022-09-17T03:38:47;7.17;;;4.40;;
11076;SDS011;5591;42.626;23.380;2022-09-17T03:41:14;6.73;;;4.53;;
11076;SDS011;5591;42.626;23.380;2022-09-17T03:43:41;7.43;;;4.90;;
11076;SDS011;5591;42.626;23.380;2022-09-17T03:46:08;8.37;;;4.40;;
11076;SDS011;5591;42.626;23.380;2022-09-17T03:48:36;9.33;;;4.20;;
11076;SDS011;5591;42.626;23.380;2022-09-17T03:51:04;7.97;;;4.10;;
11076;SDS011;5591;42.626;23.380;2022-09-17T03:53:31;7.63;;;3.70;;
11076;SDS011;5591;42.626;23.380;2022-09-17T03:55:58;5.37;;;3.40;;
11076;SDS011;5591;42.626;23.380;2022-09-17T03:58:25;5.77;;;3.40;;
11076;SDS011;5591;42.626;23.380;2022-09-17T04:00:52;5.77;;;3.43;;
11076;SDS011;5591;42.626;23.380;2022-09-17T04:03:22;8.27;;;2.97;;
11076;SDS011;5591;42.626;23.380;2022-09-17T04:05:50;9.80;;;3.40;;
11076;SDS011;5591;42.626;23.380;2022-09-17T04:08:17;7.37;;;3.33;;
11076;SDS011;5591;42.626;23.380;2022-09-17T04:10:44;6.47;;;3.80;;
11076;SDS011;5591;42.626;23.380;2022-09-17T04:13:11;6.60;;;3.70;;
11076;SDS011;5591;42.626;23.380;2022-09-17T04:15:39;8.40;;;3.60;;
11076;SDS011;5591;42.626;23.380;2022-09-17T04:18:07;7.47;;;3.53;;
11076;SDS011;5591;42.626;23.380;2022-09-17T04:20:34;5.80;;;3.57;;
11076;SDS011;5591;42.626;23.380;2022-09-17T04:23:02;6.43;;;3.50;;
11076;SDS011;5591;42.626;23.380;2022-09-17T04:25:31;6.23;;;3.50;;
11076;SDS011;5591;42.626;23.380;2022-09-17T04:27:58;7.90;;;3.17;;
11076;SDS011;5591;42.626;23.380;2022-09-17T04:30:25;6.57;;;3.37;;
11076;SDS011;5591;42.626;23.380;2022-09-17T04:32:52;5.87;;;3.17;;
11076;SDS011;5591;42.626;23.380;2022-09-17T04:35:18;5.17;;;3.20;;
11076;SDS011;5591;42.626;23.380;2022-09-17T04:37:50;8.03;;;3.23;;
11076;SDS011;5591;42.626;23.380;2022-09-17T04:40:20;5.97;;;3.50;;
11076;SDS011;5591;42.626;23.380;2022-09-17T04:42:48;7.20;;;3.40;;
11076;SDS011;5591;42.626;23.380;2022-09-17T04:45:17;7.00;;;3.10;;
11076;SDS011;5591;42.626;23.380;2022-09-17T04:47:44;8.83;;;3.00;;
11076;SDS011;5591;42.626;23.380;2022-09-17T04:50:11;7.10;;;3.27;;
11076;SDS011;5591;42.626;23.380;2022-09-17T04:52:40;5.10;;;3.57;;
11076;SDS011;5591;42.626;23.380;2022-09-17T04:55:07;8.27;;;3.73;;
11076;SDS011;5591;42.626;23.380;2022-09-17T04:57:37;8.87;;;3.63;;
11076;SDS011;5591;42.626;23.380;2022-09-17T05:00:05;10.13;;;3.53;;
11076;SDS011;5591;42.626;23.380;2022-09-17T05:02:34;5.77;;;3.63;;
11076;SDS011;5591;42.626;23.380;2022-09-17T05:05:00;9.97;;;4.50;;
11076;SDS011;5591;42.626;23.380;2022-09-17T05:07:27;10.50;;;4.20;;
11076;SDS011;5591;42.626;23.380;2022-09-17T05:09:54;14.60;;;8.20;;
11076;SDS011;5591;42.626;23.380;2022-09-17T13:21:53;8.23;;;3.50;;
11076;SDS011;5591;42.626;23.380;2022-09-17T13:27:01;6.40;;;2.43;;
11076;SDS011;5591;42.626;23.380;2022-09-17T15:55:40;6.10;;;3.90;;
11076;SDS011;5591;42.626;23.380;2022-09-17T15:58:20;3.80;;;2.07;;
11076;SDS011;5591;42.626;23.380;2022-09-17T17:27:16;2.60;;;2.33;;
11076;SDS011;5591;42.626;23.380;2022-09-17T17:29:43;4.60;;;2.40;;
11076;SDS011;5591;42.626;23.380;2022-09-17T17:32:10;3.80;;;2.03;;
11076;SDS011;5591;42.626;23.380;2022-09-17T17:34:37;4.17;;;3.00;;
11076;SDS011;5591;42.626;23.380;2022-09-17T17:37:03;3.43;;;2.87;;
11076;SDS011;5591;42.626;23.380;2022-09-17T17:39:30;2.93;;;2.00;;
11076;SDS011;5591;42.626;23.380;2022-09-17T17:41:57;3.60;;;2.00;;
11076;SDS011;5591;42.626;23.380;2022-09-17T17:44:26;2.90;;;1.87;;
11076;SDS011;5591;42.626;23.380;2022-09-17T22:34:55;2.97;;;1.90;;
11076;SDS011;5591;42.626;23.380;2022-09-17T22:37:21;3.63;;;2.23;;
11076;SDS011;5591;42.626;23.380;2022-09-17T22:39:48;4.40;;;2.30;;
11076;SDS011;5591;42.626;23.380;2022-09-17T22:42:15;6.63;;;3.33;;
11076;SDS011;5591;42.626;23.380;2022-09-17T22:44:42;4.60;;;2.30;;
11076;SDS011;5591;42.626;23.380;2022-09-17T22:47:08;5.90;;;1.97;;
11076;SDS011;5591;42.626;23.380;2022-09-17T22:49:35;4.70;;;2.40;;
11076;SDS011;5591;42.626;23.380;2022-09-17T22:52:03;4.87;;;1.90;;
11076;SDS011;5591;42.626;23.380;2022-09-17T22:54:30;2.97;;;1.70;;
11076;SDS011;5591;42.626;23.380;2022-09-17T22:56:58;3.70;;;1.90;;
11076;SDS011;5591;42.626;23.380;2022-09-17T22:59:24;3.37;;;1.73;;
11076;SDS011;5591;42.626;23.380;2022-09-17T23:01:51;4.93;;;1.83;;
11076;SDS011;5591;42.626;23.380;2022-09-17T23:04:18;5.27;;;1.90;;
11076;SDS011;5591;42.626;23.380;2022-09-17T23:06:45;3.60;;;2.20;;
11076;SDS011;5591;42.626;23.380;2022-09-17T23:09:13;3.63;;;2.20;;
11076;SDS011;5591;42.626;23.380;2022-09-17T23:11:40;2.87;;;2.00;;
11076;SDS011;5591;42.626;23.380;2022-09-17T23:14:07;3.70;;;1.80;;
11076;SDS011;5591;42.626;23.380;2022-09-17T23:16:37;2.37;;;2.07;;
11076;SDS011;5591;42.626;23.380;2022-09-17T23:19:05;5.40;;;2.20;;
11076;SDS011;5591;42.626;23.380;2022-09-17T23:21:32;4.30;;;2.00;;
11076;SDS011;5591;42.626;23.380;2022-09-17T23:23:59;4.37;;;1.93;;
11076;SDS011;5591;42.626;23.380;2022-09-17T23:26:29;4.53;;;2.30;;
11076;SDS011;5591;42.626;23.380;2022-09-17T23:28:56;3.20;;;2.03;;
11076;SDS011;5591;42.626;23.380;2022-09-17T23:31:23;4.97;;;2.03;;
11076;SDS011;5591;42.626;23.380;2022-09-17T23:33:52;2.87;;;2.10;;
11076;SDS011;5591;42.626;23.380;2022-09-17T23:36:20;3.77;;;2.20;;
11076;SDS011;5591;42.626;23.380;2022-09-17T23:38:49;4.20;;;2.17;;
11076;SDS011;5591;42.626;23.380;2022-09-17T23:41:16;4.83;;;2.00;;
11076;SDS011;5591;42.626;23.380;2022-09-17T23:43:46;5.27;;;2.30;;
11076;SDS011;5591;42.626;23.380;2022-09-17T23:46:15;4.77;;;2.30;;
11076;SDS011;5591;42.626;23.380;2022-09-17T23:48:43;2.43;;;2.20;;
11076;SDS011;5591;42.626;23.380;2022-09-17T23:51:10;4.57;;;2.40;;
11076;SDS011;5591;42.626;23.380;2022-09-17T23:53:37;3.13;;;2.27;;
11076;SDS011;5591;42.626;23.380;2022-09-17T23:56:07;4.80;;;2.33;;
11076;SDS011;5591;42.626;23.380;2022-09-17T23:58:36;3.57;;;2.30;;
